Archival Weather

Fukuoka

Fukuoka, Japan (RJFF)

Report from: Tuesday, August 16, 2022 6:00 PM JST
Current time: Sunday, November 27, 2022 5:44 PM JST

Current weather
Weather history
Weather forecast

Present weatherVCSH, light thunderstorm with rain
Temperature28.0°C (82.4°F)
Heat index32.7°C (90.9°F)
Dew point25.0°C (77.0°F)
Winds 10 kts (5.1 m/s, 11.5 mph) Southeast (140°)
Visibility6.2 mi. (10 km)
Clouds Few clouds 200 ft. (61 m)
Scattered clouds 5,000 ft. (1,524 m)
Ceiling: Broken clouds 7,000 ft. (2,134 m)
Altimeter29.71 in.Hg (1006 mB)
Relative humidity84 %
Density altitude2,163 ft. (659 m)
Flight conditions Visual Meteorological Conditions
Raw dataRJFF 160900Z 14010KT 9999 VCSH FEW002 SCT050 BKN070 28/25 Q1006 TEMPO 4000 -TSRA BR
An error has occurred. This application may no longer respond until reloaded. Reload 🗙